Time;durP1;ratioP1;P1;durP2;ratioP2;P2;SDS_P1;SDS_P2;PMS_P1;PMS_P2;Temp;Humidity;BMP_temperature;BMP_pressure;BME280_temperature;BME280_humidity;BME280_pressure;Samples;Min_cycle;Max_cycle;Signal;HPM_P1;HPM_P2
2021/04/10 00:00:34;;;;;;;25.38;16.35;;;;;;;6.60;94.74;100766.59;4958013;28;20134;-79
2021/04/10 00:03:00;;;;;;;24.80;17.38;;;;;;;6.59;94.16;100776.41;4959149;28;20124;-80
2021/04/10 00:05:27;;;;;;;29.95;17.70;;;;;;;6.57;95.24;100770.38;4991477;28;20035;-79
2021/04/10 00:07:53;;;;;;;29.45;19.40;;;;;;;6.53;95.65;100775.13;4986790;28;20049;-79
2021/04/10 00:10:20;;;;;;;25.20;17.13;;;;;;;6.52;95.19;100778.78;4971635;28;20035;-79
2021/04/10 00:12:46;;;;;;;27.17;17.75;;;;;;;6.51;96.42;100777.09;5011137;28;20053;-79
2021/04/10 00:15:14;;;;;;;27.08;17.40;;;;;;;6.53;95.15;100780.47;4983267;28;20038;-80
2021/04/10 00:17:40;;;;;;;28.87;18.43;;;;;;;6.54;95.54;100774.16;4999753;28;20043;-79
2021/04/10 00:20:09;;;;;;;27.63;17.50;;;;;;;6.43;96.54;100776.94;4983331;28;20332;-79
2021/04/10 00:22:34;;;;;;;29.00;18.60;;;;;;;6.46;96.83;100782.00;5012180;28;20037;-79
2021/04/10 00:25:00;;;;;;;29.88;19.63;;;;;;;6.42;96.45;100771.75;4980130;28;20038;-79
2021/04/10 00:27:25;;;;;;;29.52;17.63;;;;;;;6.41;96.72;100786.88;4996030;28;20039;-79
2021/04/10 00:29:50;;;;;;;32.33;18.05;;;;;;;6.31;97.75;100786.03;4984593;28;20145;-79
2021/04/10 00:32:16;;;;;;;28.05;17.90;;;;;;;6.27;97.77;100780.16;4966427;28;20050;-79
2021/04/10 00:34:41;;;;;;;30.35;19.25;;;;;;;6.29;96.72;100788.00;5008590;28;20072;-78
2021/04/10 00:37:06;;;;;;;32.90;18.38;;;;;;;6.28;97.03;100775.66;4998678;28;20045;-79
2021/04/10 00:39:32;;;;;;;29.95;18.45;;;;;;;6.23;97.39;100788.53;4967642;28;20159;-79
2021/04/10 00:41:57;;;;;;;29.70;17.85;;;;;;;6.29;96.43;100791.50;4997512;28;20050;-78
2021/04/10 00:44:23;;;;;;;30.17;17.55;;;;;;;6.18;98.37;100786.25;4982385;28;20498;-79
2021/04/10 00:46:48;;;;;;;32.03;17.83;;;;;;;6.17;98.17;100786.41;4995340;28;20049;-79
2021/04/10 00:49:13;;;;;;;30.38;18.95;;;;;;;6.20;97.60;100786.97;4986364;28;20066;-78
2021/04/10 00:51:39;;;;;;;30.90;17.23;;;;;;;6.17;98.00;100787.25;4994263;28;20042;-79
2021/04/10 00:54:05;;;;;;;30.65;17.30;;;;;;;6.15;97.25;100783.88;5000369;28;20058;-79
2021/04/10 00:56:30;;;;;;;28.90;18.23;;;;;;;6.18;96.91;100780.09;4981456;28;20043;-79
2021/04/10 00:58:56;;;;;;;28.00;16.98;;;;;;;6.18;97.58;100780.09;5000973;28;20505;-78
2021/04/10 01:01:21;;;;;;;27.80;18.13;;;;;;;6.18;97.08;100788.09;4968669;28;20124;-80
2021/04/10 01:03:47;;;;;;;31.00;17.73;;;;;;;6.16;97.42;100790.03;4983644;28;20573;-79
2021/04/10 01:06:12;;;;;;;35.22;16.95;;;;;;;6.14;97.88;100778.69;4982089;28;20434;-79
2021/04/10 01:08:37;;;;;;;29.42;16.63;;;;;;;6.09;98.02;100779.94;4984002;28;20058;-79
2021/04/10 01:11:09;;;;;;;28.90;16.40;;;;;;;6.04;98.49;100789.31;4998878;28;20402;-79
2021/04/10 01:13:44;;;;;;;32.45;18.08;;;;;;;6.03;98.42;100793.78;4983950;28;20049;-79
2021/04/10 01:16:17;;;;;;;31.17;16.90;;;;;;;5.96;99.12;100807.81;4999460;28;20045;-79
2021/04/10 01:19:08;;;;;;;29.15;18.05;;;;;;;5.97;98.32;100798.81;4983798;28;20049;-79
2021/04/10 01:21:56;;;;;;;30.77;16.95;;;;;;;5.82;100.00;100798.31;4985024;28;20064;-79
2021/04/10 01:24:49;;;;;;;32.47;18.25;;;;;;;5.90;99.25;100798.50;4995643;28;20542;-80
2021/04/10 01:27:30;;;;;;;31.13;17.58;;;;;;;5.92;99.00;100796.53;4999935;28;20066;-79
2021/04/10 01:30:09;;;;;;;37.42;17.65;;;;;;;5.83;99.39;100792.00;4970129;28;20109;-79
2021/04/10 01:32:39;;;;;;;31.05;16.50;;;;;;;5.81;99.93;100799.28;4988448;28;20035;-79
2021/04/10 01:35:18;;;;;;;28.85;17.15;;;;;;;5.75;100.00;100791.81;4986020;28;20058;-79
2021/04/10 01:37:52;;;;;;;32.47;17.23;;;;;;;5.81;98.27;100802.81;4998378;28;20054;-79
2021/04/10 01:40:19;;;;;;;32.20;15.65;;;;;;;5.71;99.90;100796.56;5002822;28;20273;-79
2021/04/10 01:42:47;;;;;;;29.98;15.48;;;;;;;5.67;100.00;100800.50;4980904;28;20141;-80
2021/04/10 01:45:14;;;;;;;28.88;15.27;;;;;;;5.66;100.00;100807.63;4970268;28;20045;-78
2021/04/10 01:47:42;;;;;;;25.70;14.23;;;;;;;5.68;99.24;100811.97;4961127;28;20055;-80
2021/04/10 01:50:07;;;;;;;28.38;15.52;;;;;;;5.58;100.00;100804.78;4968725;28;20049;-80
2021/04/10 01:52:33;;;;;;;30.90;15.82;;;;;;;5.55;100.00;100805.06;4985190;28;20042;-79
2021/04/10 01:55:04;;;;;;;27.63;15.02;;;;;;;5.54;100.00;100813.16;4972912;28;20054;-80
2021/04/10 01:57:33;;;;;;;27.52;14.45;;;;;;;5.54;100.00;100807.84;4970383;28;20043;-79
2021/04/10 02:00:00;;;;;;;28.30;14.13;;;;;;;5.57;99.68;100808.41;4981315;28;20054;-79
2021/04/10 02:02:26;;;;;;;29.88;13.85;;;;;;;5.50;100.00;100811.75;4981068;28;20129;-79
2021/04/10 02:04:52;;;;;;;27.20;14.98;;;;;;;5.51;100.00;100818.75;5006522;28;20139;-79
2021/04/10 02:07:23;;;;;;;25.30;13.57;;;;;;;5.52;100.00;100821.25;4981501;28;20555;-79
2021/04/10 02:09:50;;;;;;;26.60;13.73;;;;;;;5.50;99.88;100817.06;4981238;28;20049;-80
2021/04/10 02:12:20;;;;;;;25.33;14.13;;;;;;;5.45;100.00;100825.44;4992647;28;20054;-79
2021/04/10 02:14:46;;;;;;;23.88;12.85;;;;;;;5.43;100.00;100819.38;4988910;28;20058;-80
2021/04/10 02:17:18;;;;;;;27.50;13.13;;;;;;;5.36;100.00;100819.06;4981288;28;20050;-80
2021/04/10 02:19:45;;;;;;;21.33;12.80;;;;;;;5.42;99.91;100821.22;4974701;28;20063;-79
2021/04/10 02:22:13;;;;;;;21.60;12.32;;;;;;;5.41;99.34;100814.22;4981921;28;20541;-79
2021/04/10 02:24:39;;;;;;;24.52;11.98;;;;;;;5.41;99.22;100821.34;5004629;28;20038;-79
2021/04/10 02:27:05;;;;;;;25.25;11.40;;;;;;;5.35;99.83;100814.75;4996731;28;20129;-78
2021/04/10 02:29:31;;;;;;;21.67;11.55;;;;;;;5.40;98.79;100811.66;4988089;28;20118;-80
2021/04/10 02:32:06;;;;;;;23.30;10.10;;;;;;;5.27;100.00;100813.69;4989152;28;20129;-78
2021/04/10 02:34:37;;;;;;;19.20;10.30;;;;;;;5.32;99.05;100814.13;4968518;28;20042;-79
2021/04/10 02:37:02;;;;;;;20.92;9.68;;;;;;;5.29;99.63;100817.06;4974628;28;20262;-79
2021/04/10 02:39:29;;;;;;;18.27;9.95;;;;;;;5.27;100.00;100811.03;4984242;28;20048;-79
2021/04/10 02:41:58;;;;;;;19.30;9.75;;;;;;;5.28;99.45;100807.41;4983393;28;20035;-78
2021/04/10 02:44:34;;;;;;;16.10;8.45;;;;;;;5.22;99.49;100808.75;4986871;28;20066;-79
2021/04/10 02:47:05;;;;;;;20.35;8.43;;;;;;;5.19;98.65;100809.84;4988999;28;20387;-80
2021/04/10 02:49:34;;;;;;;18.58;7.35;;;;;;;5.22;97.83;100802.59;4985657;28;20046;-80
2021/04/10 02:52:01;;;;;;;15.05;7.97;;;;;;;5.19;97.75;100814.34;4988791;28;20046;-79
2021/04/10 02:54:36;;;;;;;15.02;7.43;;;;;;;5.16;97.92;100806.63;4985935;28;20058;-78
2021/04/10 02:57:04;;;;;;;20.80;8.02;;;;;;;5.24;96.89;100809.47;4984210;28;20070;-80
2021/04/10 02:59:33;;;;;;;16.05;6.43;;;;;;;5.15;97.86;100816.41;4983356;28;20042;-78
2021/04/10 03:01:59;;;;;;;11.70;6.25;;;;;;;5.09;97.77;100808.94;4986654;28;20558;-79
2021/04/10 03:04:26;;;;;;;14.88;6.10;;;;;;;5.07;98.23;100800.25;4988032;28;20046;-79
2021/04/10 03:06:53;;;;;;;15.43;6.82;;;;;;;5.09;97.69;100808.94;4988450;28;20133;-79
2021/04/10 03:09:19;;;;;;;12.18;6.25;;;;;;;5.04;97.91;100812.97;4986120;28;20038;-79
2021/04/10 03:11:45;;;;;;;17.15;6.25;;;;;;;5.11;96.66;100812.31;4985990;28;20043;-79
2021/04/10 03:14:11;;;;;;;13.48;6.00;;;;;;;5.06;96.86;100806.53;4986204;28;20045;-79
2021/04/10 03:16:39;;;;;;;12.52;5.90;;;;;;;5.09;96.69;100811.63;4986347;28;20042;-78
2021/04/10 03:19:06;;;;;;;17.45;5.45;;;;;;;5.08;96.33;100817.03;4981551;28;20069;-78
2021/04/10 03:21:31;;;;;;;13.85;5.95;;;;;;;5.01;95.95;100819.38;4962680;28;20039;-79
2021/04/10 03:23:57;;;;;;;11.30;5.55;;;;;;;5.05;95.99;100828.78;4976484;28;20042;-79
2021/04/10 03:26:24;;;;;;;13.15;5.07;;;;;;;5.07;95.53;100826.84;4968666;28;20043;-78
2021/04/10 03:28:52;;;;;;;13.27;5.43;;;;;;;5.08;95.04;100827.69;4987357;28;20042;-78
2021/04/10 03:31:19;;;;;;;13.20;5.40;;;;;;;5.07;95.44;100832.16;5017584;28;20509;-79
2021/04/10 03:33:44;;;;;;;12.88;4.50;;;;;;;5.08;94.82;100831.19;4987705;28;20046;-79
2021/04/10 03:36:10;;;;;;;14.02;5.55;;;;;;;5.08;95.18;100825.03;4994821;28;20039;-79
2021/04/10 03:38:35;;;;;;;13.48;5.45;;;;;;;5.09;94.94;100829.38;5001892;28;20516;-78
2021/04/10 03:41:05;;;;;;;15.30;5.00;;;;;;;4.98;95.61;100824.97;4976432;28;20043;-78
2021/04/10 03:43:31;;;;;;;11.23;5.15;;;;;;;4.97;95.81;100825.91;4983929;28;20109;-78
2021/04/10 03:45:58;;;;;;;11.45;5.07;;;;;;;4.91;96.17;100827.25;4963877;28;20195;-78
2021/04/10 03:48:23;;;;;;;13.63;5.55;;;;;;;4.96;95.46;100834.88;4973251;28;20069;-78
2021/04/10 03:50:49;;;;;;;15.77;5.07;;;;;;;4.99;95.39;100837.28;4964815;28;20487;-78
2021/04/10 03:53:14;;;;;;;11.10;5.20;;;;;;;4.97;96.17;100834.72;4997766;28;20039;-79
2021/04/10 03:55:40;;;;;;;13.48;5.45;;;;;;;4.92;95.91;100836.06;4988871;28;20050;-79
2021/04/10 03:58:05;;;;;;;12.65;5.00;;;;;;;4.92;95.89;100839.59;4970867;28;20117;-78
2021/04/10 04:00:31;;;;;;;14.98;5.63;;;;;;;4.96;96.08;100842.84;5022820;28;20057;-79
2021/04/10 04:02:57;;;;;;;14.57;5.15;;;;;;;4.89;97.04;100844.31;4988561;28;20041;-80
2021/04/10 04:05:23;;;;;;;13.32;5.20;;;;;;;4.85;96.68;100857.03;4989889;28;20035;-80
2021/04/10 04:07:49;;;;;;;13.02;4.47;;;;;;;4.86;96.58;100849.88;5021721;28;20073;-79
2021/04/10 04:10:15;;;;;;;15.77;5.28;;;;;;;4.85;96.29;100851.69;5006911;28;20096;-80
2021/04/10 04:12:41;;;;;;;11.02;4.90;;;;;;;4.85;97.27;100858.84;4989795;28;20567;-78
2021/04/10 04:15:07;;;;;;;14.27;5.63;;;;;;;4.86;96.67;100855.19;4990235;28;20038;-78
2021/04/10 04:17:32;;;;;;;14.35;5.10;;;;;;;4.83;96.82;100856.28;4989552;28;20375;-79
2021/04/10 04:19:57;;;;;;;14.32;5.13;;;;;;;4.81;97.80;100855.59;4988170;28;20039;-79
2021/04/10 04:22:23;;;;;;;19.10;5.55;;;;;;;4.78;97.80;100855.84;4980075;28;20173;-79
2021/04/10 04:24:49;;;;;;;13.60;4.68;;;;;;;4.80;97.67;100856.53;4987132;28;20042;-79
2021/04/10 04:27:15;;;;;;;15.05;6.03;;;;;;;4.79;97.74;100872.63;4998333;28;20034;-79
2021/04/10 04:29:41;;;;;;;14.27;5.32;;;;;;;4.82;97.41;100865.25;5001754;28;20035;-79
2021/04/10 04:32:07;;;;;;;12.40;5.63;;;;;;;4.79;97.34;100869.97;4999289;28;20092;-79
2021/04/10 04:34:37;;;;;;;15.00;5.75;;;;;;;4.74;98.08;100867.69;5004134;28;20038;-79
2021/04/10 04:37:03;;;;;;;15.48;5.18;;;;;;;4.75;98.17;100878.22;5005876;28;20045;-78
2021/04/10 04:39:29;;;;;;;16.65;5.88;;;;;;;4.73;98.01;100882.78;4990252;28;20077;-78
2021/04/10 04:41:54;;;;;;;16.17;5.30;;;;;;;4.71;97.98;100878.56;4985247;28;20069;-79
2021/04/10 04:44:20;;;;;;;13.80;5.88;;;;;;;4.74;97.49;100881.81;5001322;28;20121;-78
2021/04/10 04:46:45;;;;;;;14.52;6.40;;;;;;;4.81;97.40;100884.00;5002107;28;20050;-80
2021/04/10 04:49:10;;;;;;;17.50;6.35;;;;;;;4.78;97.83;100874.47;4999053;28;20038;-79
2021/04/10 04:51:36;;;;;;;15.40;6.80;;;;;;;4.80;97.67;100882.28;4981066;28;20050;-79
2021/04/10 04:54:02;;;;;;;21.05;6.95;;;;;;;4.73;98.30;100884.63;5004963;28;20082;-79
2021/04/10 04:56:27;;;;;;;17.08;5.93;;;;;;;4.69;97.91;100880.50;4990089;28;20034;-78
2021/04/10 04:58:53;;;;;;;20.48;6.88;;;;;;;4.67;98.57;100888.63;4989960;28;20042;-79
2021/04/10 05:01:18;;;;;;;18.80;6.97;;;;;;;4.64;99.11;100880.88;4986225;28;20522;-79
2021/04/10 05:03:44;;;;;;;16.80;7.10;;;;;;;4.70;98.22;100891.03;4969822;28;20444;-78
2021/04/10 05:06:09;;;;;;;13.88;6.53;;;;;;;4.68;98.87;100890.28;5002511;28;20046;-77
2021/04/10 05:08:34;;;;;;;15.05;5.85;;;;;;;4.63;98.77;100886.31;4985682;28;20047;-80
2021/04/10 05:11:00;;;;;;;15.10;6.45;;;;;;;4.66;98.55;100889.59;4990550;28;20045;-78
2021/04/10 05:13:25;;;;;;;17.35;7.07;;;;;;;4.69;98.01;100897.31;4987475;28;20587;-79
2021/04/10 05:15:51;;;;;;;20.40;6.82;;;;;;;4.70;98.09;100906.97;4986100;28;20041;-80
2021/04/10 05:18:18;;;;;;;19.08;7.05;;;;;;;4.72;97.45;100907.69;4987254;28;20141;-79
2021/04/10 05:20:44;;;;;;;19.38;6.95;;;;;;;4.74;97.66;100913.72;5000687;28;20076;-79
2021/04/10 05:23:10;;;;;;;19.73;6.70;;;;;;;4.71;97.69;100915.78;4988680;28;20511;-79
2021/04/10 05:25:36;;;;;;;13.63;6.55;;;;;;;4.72;97.97;100906.88;4988079;28;20054;-79
2021/04/10 05:28:03;;;;;;;17.80;7.15;;;;;;;4.71;98.33;100908.66;4986465;28;20059;-79
2021/04/10 05:30:28;;;;;;;21.20;6.72;;;;;;;4.70;98.02;100917.59;4972042;28;20034;-78
2021/04/10 05:32:54;;;;;;;15.45;7.22;;;;;;;4.65;98.33;100918.94;4996106;28;20116;-78
2021/04/10 05:35:19;;;;;;;19.80;7.28;;;;;;;4.59;98.40;100922.94;4985633;28;20026;-79
2021/04/10 05:37:44;;;;;;;13.43;5.78;;;;;;;4.65;97.80;100930.41;4988120;28;20047;-78
2021/04/10 05:40:10;;;;;;;18.45;6.35;;;;;;;4.61;98.05;100928.97;4989733;28;20629;-79
2021/04/10 05:42:36;;;;;;;15.45;6.53;;;;;;;4.63;97.90;100935.03;4983670;28;20034;-79
2021/04/10 05:45:02;;;;;;;19.23;6.50;;;;;;;4.61;98.30;100934.31;4986108;28;20094;-79
2021/04/10 05:47:27;;;;;;;15.15;6.00;;;;;;;4.65;97.90;100935.72;4986418;28;20035;-79
2021/04/10 05:49:53;;;;;;;14.48;6.43;;;;;;;4.70;96.95;100935.38;4987054;28;20426;-79
2021/04/10 05:52:18;;;;;;;20.83;6.13;;;;;;;4.64;97.60;100931.41;4989227;28;20049;-79
2021/04/10 05:54:44;;;;;;;16.42;6.03;;;;;;;4.68;96.84;100940.81;4982089;28;20046;-78
2021/04/10 05:57:09;;;;;;;13.27;5.63;;;;;;;4.65;97.73;100943.72;4987856;28;20170;-79
2021/04/10 05:59:35;;;;;;;14.95;6.07;;;;;;;4.67;96.91;100947.09;4992975;28;20047;-79
2021/04/10 06:02:07;;;;;;;13.70;6.10;;;;;;;4.65;97.55;100942.88;4995262;28;20125;-78
2021/04/10 06:04:36;;;;;;;14.35;6.60;;;;;;;4.67;97.47;100931.16;4984544;28;20553;-78
2021/04/10 06:07:03;;;;;;;13.88;5.70;;;;;;;4.63;97.96;100932.38;4997662;28;20045;-78
2021/04/10 06:09:28;;;;;;;13.23;5.53;;;;;;;4.61;97.78;100934.31;5007141;28;20049;-79
2021/04/10 06:11:54;;;;;;;17.00;6.40;;;;;;;4.63;97.32;100942.13;4983359;28;20058;-79
2021/04/10 06:14:20;;;;;;;14.55;5.90;;;;;;;4.60;97.70;100945.88;5001218;28;20053;-78
2021/04/10 06:16:47;;;;;;;14.10;5.97;;;;;;;4.60;97.57;100945.88;4976360;28;20058;-78
2021/04/10 06:19:13;;;;;;;17.13;6.85;;;;;;;4.62;98.06;100943.94;4983782;28;20088;-78
2021/04/10 06:21:38;;;;;;;14.48;6.15;;;;;;;4.62;98.38;100943.94;4985789;28;20050;-78
2021/04/10 06:24:04;;;;;;;14.55;6.57;;;;;;;4.65;97.88;100949.03;5000170;28;20406;-78
2021/04/10 06:26:29;;;;;;;16.02;6.30;;;;;;;4.67;98.45;100952.41;4983921;28;20039;-78
2021/04/10 06:28:54;;;;;;;14.75;6.63;;;;;;;4.65;98.48;100951.69;4982048;28;20472;-79
2021/04/10 06:31:20;;;;;;;19.10;6.13;;;;;;;4.61;98.81;100955.56;4999042;28;20046;-78
2021/04/10 06:33:45;;;;;;;13.45;6.03;;;;;;;4.62;98.86;100953.75;4985074;28;20042;-78
2021/04/10 06:36:10;;;;;;;11.98;5.13;;;;;;;4.63;99.16;100955.44;4985818;28;20034;-78
2021/04/10 06:38:36;;;;;;;18.23;6.80;;;;;;;4.66;99.19;100963.16;4998443;28;20129;-79
2021/04/10 06:41:01;;;;;;;17.05;6.25;;;;;;;4.66;99.32;100958.72;4989555;28;20053;-78
2021/04/10 06:43:26;;;;;;;18.90;6.82;;;;;;;4.70;98.89;100959.31;4965641;28;20403;-79
2021/04/10 06:45:52;;;;;;;16.77;5.80;;;;;;;4.66;98.97;100944.53;4996901;28;20121;-79
2021/04/10 06:48:21;;;;;;;12.25;5.80;;;;;;;4.70;98.60;100957.47;4999163;28;20049;-79
2021/04/10 06:50:47;;;;;;;17.00;6.70;;;;;;;4.74;98.31;100953.59;4999921;28;20408;-79
2021/04/10 06:53:14;;;;;;;13.93;5.75;;;;;;;4.79;97.91;100960.38;4996161;28;20050;-79
2021/04/10 06:55:47;;;;;;;13.77;6.40;;;;;;;4.78;97.96;100966.69;4998559;28;20057;-78
2021/04/10 06:58:20;;;;;;;12.02;6.00;;;;;;;4.74;98.27;100969.56;4980288;28;20057;-78
2021/04/10 07:00:51;;;;;;;15.65;6.40;;;;;;;4.76;98.37;100966.78;4984244;28;20041;-79
2021/04/10 07:03:17;;;;;;;18.30;6.50;;;;;;;4.75;99.13;100971.25;4999200;28;20658;-78
2021/04/10 07:05:42;;;;;;;13.45;6.38;;;;;;;4.79;98.77;100976.34;4998910;28;20062;-79
2021/04/10 07:08:09;;;;;;;16.30;6.28;;;;;;;4.81;98.64;100969.94;4983747;28;20050;-78
2021/04/10 07:10:35;;;;;;;15.05;6.20;;;;;;;4.82;98.42;100970.78;4967344;28;20050;-79
2021/04/10 07:13:06;;;;;;;15.85;5.53;;;;;;;4.76;99.20;100982.75;4963384;28;20047;-79
2021/04/10 07:15:31;;;;;;;16.20;7.35;;;;;;;4.80;98.82;100983.34;4998236;28;20050;-78
2021/04/10 07:17:57;;;;;;;16.42;5.53;;;;;;;4.76;98.96;100985.41;4983648;28;20069;-78
2021/04/10 07:20:22;;;;;;;15.65;6.93;;;;;;;4.79;98.29;100987.81;4999609;28;20038;-78
2021/04/10 07:23:10;;;;;;;15.60;6.20;;;;;;;4.86;98.59;100990.81;4984383;28;20070;-80
2021/04/10 07:25:45;;;;;;;15.30;5.80;;;;;;;4.80;99.00;100991.31;4996174;28;20046;-79
2021/04/10 07:28:31;;;;;;;16.35;5.75;;;;;;;4.69;100.00;100993.03;4998209;28;20080;-79
2021/04/10 07:31:00;;;;;;;13.18;6.18;;;;;;;4.72;99.77;100986.63;4998876;28;20387;-79
2021/04/10 07:33:27;;;;;;;17.88;6.40;;;;;;;4.78;98.99;100990.59;4985623;28;20038;-79
2021/04/10 07:35:52;;;;;;;19.13;6.35;;;;;;;4.88;98.50;100991.53;4987016;28;20137;-79
2021/04/10 07:38:32;;;;;;;15.90;5.93;;;;;;;4.87;99.07;100995.19;4985466;28;20452;-80
2021/04/10 07:41:00;;;;;;;13.27;6.13;;;;;;;4.86;99.50;100998.78;4983627;28;20523;-79
2021/04/10 07:43:37;;;;;;;13.32;6.10;;;;;;;4.83;99.62;101007.00;4982203;28;20057;-79
2021/04/10 07:46:23;;;;;;;18.77;6.75;;;;;;;4.83;99.96;101002.53;4979689;28;20065;-80
2021/04/10 07:49:11;;;;;;;18.33;7.13;;;;;;;4.89;99.60;101014.50;4996329;28;20047;-80
2021/04/10 07:51:59;;;;;;;16.42;6.78;;;;;;;4.87;99.63;101005.81;4982105;28;20050;-79
2021/04/10 07:54:38;;;;;;;15.73;6.95;;;;;;;4.86;99.83;101014.75;4982989;28;20209;-80
2021/04/10 07:57:06;;;;;;;19.10;6.78;;;;;;;4.88;100.00;101007.50;4981263;28;20042;-80
2021/04/10 07:59:50;;;;;;;22.80;7.82;;;;;;;4.90;99.85;101010.91;4984770;28;20053;-80
2021/04/10 08:02:17;;;;;;;25.60;8.45;;;;;;;4.87;100.00;101008.47;4983593;28;20398;-78
2021/04/10 08:04:57;;;;;;;33.05;9.30;;;;;;;4.88;100.00;101007.50;4986078;28;20042;-79
2021/04/10 08:07:28;;;;;;;20.73;7.40;;;;;;;4.91;100.00;101012.56;4985517;28;20391;-78
2021/04/10 08:10:01;;;;;;;104.63;18.70;;;;;;;4.89;100.00;101014.50;4982769;28;20866;-79
2021/04/10 08:12:33;;;;;;;28.50;9.15;;;;;;;4.89;100.00;101006.53;4984523;28;20667;-79
2021/04/10 08:15:01;;;;;;;78.50;15.10;;;;;;;4.91;100.00;101021.41;4998840;28;20046;-79
2021/04/10 08:17:43;;;;;;;43.70;11.85;;;;;;;4.93;100.00;101015.97;4983769;28;20554;-81
2021/04/10 08:20:29;;;;;;;36.72;10.57;;;;;;;4.95;100.00;101022.03;4986234;28;21420;-79
2021/04/10 08:23:21;;;;;;;58.28;13.27;;;;;;;4.91;100.00;101017.91;4961525;28;20042;-79
2021/04/10 08:25:49;;;;;;;33.17;10.98;;;;;;;4.98;100.00;101021.78;4979955;28;20089;-79
2021/04/10 08:28:15;;;;;;;29.23;9.85;;;;;;;5.01;100.00;101032.16;4982339;28;20035;-78
2021/04/10 08:30:44;;;;;;;23.92;10.88;;;;;;;5.08;99.99;101025.38;4983618;28;20070;-79
2021/04/10 08:33:10;;;;;;;107.75;22.05;;;;;;;5.07;100.00;101022.84;4984102;28;20422;-79
2021/04/10 08:35:42;;;;;;;31.77;12.25;;;;;;;5.08;100.00;101030.69;4978880;28;20042;-80
2021/04/10 08:38:09;;;;;;;28.85;13.30;;;;;;;5.09;100.00;101031.53;4989466;28;20040;-78
2021/04/10 08:40:36;;;;;;;29.55;13.02;;;;;;;5.10;100.00;101025.25;4985814;28;20058;-78
2021/04/10 08:43:03;;;;;;;25.40;13.45;;;;;;;5.18;99.99;101021.00;4985201;28;20042;-77
2021/04/10 08:45:35;;;;;;;23.73;13.82;;;;;;;5.23;100.00;101023.28;4979242;28;20083;-78
2021/04/10 08:48:06;;;;;;;28.92;14.98;;;;;;;5.19;100.00;101020.03;4986574;28;20463;-79
2021/04/10 08:50:35;;;;;;;26.75;14.27;;;;;;;5.16;100.00;101022.94;4999710;28;20049;-79
2021/04/10 08:53:11;;;;;;;32.25;17.60;;;;;;;5.22;100.00;101020.75;4987643;28;20124;-79
2021/04/10 08:55:39;;;;;;;29.20;17.40;;;;;;;5.30;100.00;101027.16;4984832;28;20699;-81
2021/04/10 08:58:27;;;;;;;28.58;19.13;;;;;;;5.31;100.00;101028.00;4988419;28;20053;-84
2021/04/10 09:00:58;;;;;;;33.15;19.98;;;;;;;5.35;100.00;101037.41;4984689;28;20058;-78
2021/04/10 09:03:46;;;;;;;33.65;19.58;;;;;;;5.40;100.00;101035.22;5016370;28;20042;-80
2021/04/10 09:06:13;;;;;;;32.65;21.17;;;;;;;5.46;99.95;101039.19;5012630;28;20050;-80
2021/04/10 09:08:39;;;;;;;35.72;21.38;;;;;;;5.50;100.00;101025.53;4987192;28;20042;-79
2021/04/10 09:11:07;;;;;;;36.28;21.45;;;;;;;5.52;99.52;101026.22;4987293;28;20570;-80
2021/04/10 09:13:40;;;;;;;34.60;21.67;;;;;;;5.60;100.00;101026.44;4988658;28;20154;-79
2021/04/10 09:16:38;;;;;;;35.85;22.77;;;;;;;5.74;100.00;101027.13;4986394;28;20057;-78
2021/04/10 09:19:11;;;;;;;40.28;23.75;;;;;;;5.87;99.60;101030.47;4985510;28;20039;-80
2021/04/10 09:21:47;;;;;;;42.53;23.85;;;;;;;5.90;98.38;101038.22;4981193;28;20042;-79
2021/04/10 09:24:26;;;;;;;41.22;24.52;;;;;;;6.02;98.92;101039.03;4983249;28;20046;-78
2021/04/10 09:27:01;;;;;;;39.47;26.58;;;;;;;6.05;98.05;101034.28;4993092;28;20038;-79
2021/04/10 09:29:30;;;;;;;42.08;26.55;;;;;;;6.13;98.46;101032.78;4987701;28;20113;-79
2021/04/10 09:32:01;;;;;;;43.53;28.20;;;;;;;6.14;97.56;101039.81;4984049;28;20046;-81
2021/04/10 09:34:49;;;;;;;42.85;26.92;;;;;;;6.13;97.61;101036.31;5021487;28;20053;-79
2021/04/10 09:37:21;;;;;;;40.75;27.33;;;;;;;6.22;97.64;101042.69;4980556;28;20041;-79
2021/04/10 09:40:02;;;;;;;47.67;29.10;;;;;;;6.27;97.89;101040.47;4987026;28;20125;-79
2021/04/10 09:42:37;;;;;;;43.28;27.42;;;;;;;6.31;97.26;101042.75;5000289;28;20058;-79
2021/04/10 09:45:15;;;;;;;43.70;27.63;;;;;;;6.25;96.54;101045.09;4986117;28;20568;-81
2021/04/10 09:48:02;;;;;;;42.45;25.67;;;;;;;6.31;96.01;101045.41;4997764;28;20050;-79
2021/04/10 09:50:31;;;;;;;40.85;26.60;;;;;;;6.38;96.21;101039.56;5000217;28;20557;-79
2021/04/10 09:53:06;;;;;;;37.25;23.88;;;;;;;6.28;96.18;101043.00;5003991;28;20038;-80
2021/04/10 09:55:40;;;;;;;39.17;24.58;;;;;;;6.30;95.52;101037.53;5003221;28;20046;-79
2021/04/10 09:58:07;;;;;;;37.83;25.38;;;;;;;6.28;96.47;101035.00;5000215;28;20046;-79
2021/04/10 10:00:35;;;;;;;37.00;24.60;;;;;;;6.32;95.35;101036.44;4987128;28;20077;-79
2021/04/10 10:03:02;;;;;;;37.83;22.52;;;;;;;6.29;94.83;101038.50;4985793;28;20129;-79
2021/04/10 10:05:38;;;;;;;45.00;23.65;;;;;;;6.31;94.85;101023.25;4982901;28;20066;-80
2021/04/10 10:08:08;;;;;;;44.30;22.90;;;;;;;6.35;94.74;101029.16;4955936;28;20498;-79
2021/04/10 10:10:45;;;;;;;67.72;26.95;;;;;;;6.38;94.62;101037.72;4985929;28;20046;-81
2021/04/10 10:13:22;;;;;;;37.25;23.10;;;;;;;6.44;94.70;101029.19;5005492;28;20121;-80
2021/04/10 10:15:50;;;;;;;31.00;20.73;;;;;;;6.48;94.64;101027.97;4988190;28;20085;-79
2021/04/10 10:18:23;;;;;;;37.72;21.23;;;;;;;6.48;94.77;101030.63;4986142;28;20069;-79
2021/04/10 10:21:16;;;;;;;33.45;20.30;;;;;;;6.54;94.82;101023.94;4987467;28;21863;-80
2021/04/10 10:23:52;;;;;;;31.48;17.88;;;;;;;6.53;93.41;101019.56;4985596;28;20051;-80
2021/04/10 10:26:24;;;;;;;32.25;19.45;;;;;;;6.55;93.55;101010.47;5001899;28;20088;-80
2021/04/10 10:28:51;;;;;;;28.90;19.60;;;;;;;6.62;93.78;101009.91;5012173;28;20022;-78
2021/04/10 10:31:17;;;;;;;26.85;18.02;;;;;;;6.62;92.86;101009.91;4986124;28;20046;-80
2021/04/10 10:33:44;;;;;;;24.90;16.13;;;;;;;6.59;92.67;101013.72;5000592;28;20038;-79
2021/04/10 10:36:10;;;;;;;29.35;18.30;;;;;;;6.62;92.90;101012.59;4990737;28;20034;-79
2021/04/10 10:38:38;;;;;;;25.30;16.40;;;;;;;6.64;92.58;101010.63;5013295;28;20051;-79
2021/04/10 10:41:06;;;;;;;28.80;15.32;;;;;;;6.65;92.94;101012.34;4986088;28;20049;-79
2021/04/10 10:43:32;;;;;;;29.98;15.05;;;;;;;6.65;91.96;101010.53;4983831;28;20053;-80
2021/04/10 10:46:02;;;;;;;25.80;16.20;;;;;;;6.62;92.53;101008.13;4987060;28;20435;-79
2021/04/10 10:48:35;;;;;;;27.40;15.35;;;;;;;6.63;92.60;101016.97;4986563;28;20038;-80
2021/04/10 10:51:01;;;;;;;27.30;15.77;;;;;;;6.58;91.93;101011.19;4982712;28;20047;-79
2021/04/10 10:53:45;;;;;;;25.08;13.82;;;;;;;6.52;92.66;101015.22;4986151;28;20053;-80
2021/04/10 10:56:21;;;;;;;25.90;14.30;;;;;;;6.54;92.78;101007.94;4980504;28;20050;-80
2021/04/10 10:58:46;;;;;;;27.63;14.68;;;;;;;6.51;92.50;101006.38;4980891;28;20039;-80
2021/04/10 11:01:20;;;;;;;29.83;14.95;;;;;;;6.53;92.60;101000.91;4982245;28;20073;-80
2021/04/10 11:03:50;;;;;;;23.08;14.48;;;;;;;6.52;93.31;101001.88;4987593;28;20062;-79
2021/04/10 11:06:31;;;;;;;26.13;14.95;;;;;;;6.54;93.01;100995.44;4999925;28;20039;-80
2021/04/10 11:08:57;;;;;;;29.63;14.93;;;;;;;6.55;93.16;100997.13;4980845;28;20046;-78
2021/04/10 11:11:28;;;;;;;26.10;15.32;;;;;;;6.54;93.87;100992.78;4985161;28;20074;-79
2021/04/10 11:13:54;;;;;;;28.50;15.05;;;;;;;6.59;93.19;100994.19;4981828;28;20276;-79
2021/04/10 11:16:20;;;;;;;30.90;13.70;;;;;;;6.56;92.84;100995.31;4984762;28;20042;-79
2021/04/10 11:18:45;;;;;;;21.95;14.10;;;;;;;6.65;93.04;100993.69;4968000;28;20042;-80
2021/04/10 11:21:15;;;;;;;23.10;14.25;;;;;;;6.64;92.81;100991.97;5005474;28;20046;-80
2021/04/10 11:24:05;;;;;;;24.95;15.05;;;;;;;6.68;93.27;100988.09;4977714;28;20047;-79
2021/04/10 11:26:44;;;;;;;27.80;14.77;;;;;;;6.67;94.49;100986.38;4982504;28;20050;-81
2021/04/10 11:29:26;;;;;;;24.88;13.02;;;;;;;6.62;94.04;100980.59;4986365;28;20491;-79